createdAt,value
2017-12-05T00:01:52.507Z,8.45
2017-12-05T00:04:18.712Z,9.25
2017-12-05T00:06:44.937Z,9.10
2017-12-05T00:09:11.152Z,9.00
2017-12-05T00:11:37.375Z,10.50
2017-12-05T00:14:03.571Z,9.48
2017-12-05T00:16:29.836Z,10.80
2017-12-05T00:18:56.087Z,9.50
2017-12-05T00:21:22.386Z,8.50
2017-12-05T00:23:48.972Z,9.88
2017-12-05T00:26:15.216Z,9.45
2017-12-05T00:28:41.497Z,10.00
2017-12-05T00:31:07.722Z,9.60
2017-12-05T00:33:33.992Z,9.40
2017-12-05T00:36:00.211Z,7.82
2017-12-05T00:38:26.439Z,9.65
2017-12-05T00:40:52.690Z,8.90
2017-12-05T00:43:18.990Z,11.90
2017-12-05T00:45:45.315Z,9.88
2017-12-05T00:48:11.584Z,9.07
2017-12-05T00:50:37.804Z,8.88
2017-12-05T00:53:04.048Z,8.70
2017-12-05T00:55:30.659Z,8.60
2017-12-05T00:57:56.900Z,8.40
2017-12-05T01:00:23.100Z,9.20
2017-12-05T01:02:49.341Z,8.18
2017-12-05T01:05:15.580Z,8.55
2017-12-05T01:07:41.810Z,9.48
2017-12-05T01:10:08.035Z,8.73
2017-12-05T01:12:34.222Z,8.52
2017-12-05T01:15:00.407Z,9.07
2017-12-05T01:17:26.997Z,7.35
2017-12-05T01:19:53.248Z,8.45
2017-12-05T01:22:19.465Z,9.07
2017-12-05T01:24:45.692Z,6.78
2017-12-05T01:27:11.912Z,7.80
2017-12-05T01:29:38.135Z,7.55
2017-12-05T01:32:04.327Z,8.55
2017-12-05T01:34:30.895Z,9.25
2017-12-05T01:36:57.113Z,8.40
2017-12-05T01:39:23.367Z,8.13
2017-12-05T01:41:49.588Z,8.73
2017-12-05T01:44:15.806Z,8.93
2017-12-05T01:46:42.062Z,7.80
2017-12-05T01:49:08.277Z,9.48
2017-12-05T01:51:34.542Z,8.48
2017-12-05T01:54:01.156Z,7.47
2017-12-05T01:56:27.415Z,8.55
2017-12-05T01:58:54.103Z,8.27
2017-12-05T02:01:20.316Z,8.13
2017-12-05T02:03:46.572Z,7.28
2017-12-05T02:06:12.801Z,9.27
2017-12-05T02:08:39.036Z,8.80
2017-12-05T02:11:05.311Z,8.20
2017-12-05T02:13:31.543Z,8.60
2017-12-05T02:15:57.824Z,7.55
2017-12-05T02:18:24.076Z,7.10
2017-12-05T02:20:50.726Z,6.85
2017-12-05T02:23:17.329Z,8.48
2017-12-05T02:25:43.558Z,7.30
2017-12-05T02:28:09.796Z,6.55
2017-12-05T02:30:36.027Z,7.22
2017-12-05T02:33:02.263Z,7.40
2017-12-05T02:35:28.849Z,6.97
2017-12-05T02:37:55.061Z,6.45
2017-12-05T02:40:21.345Z,8.45
2017-12-05T02:42:47.551Z,8.02
2017-12-05T02:45:13.776Z,7.40
2017-12-05T02:47:40.012Z,7.65
2017-12-05T02:50:06.261Z,7.30
2017-12-05T02:52:32.858Z,7.53
2017-12-05T02:54:59.115Z,7.55
2017-12-05T02:57:25.372Z,7.45
2017-12-05T02:59:51.623Z,7.87
2017-12-05T03:02:18.033Z,7.45
2017-12-05T03:04:44.656Z,8.10
2017-12-05T03:07:11.287Z,7.20
2017-12-05T03:09:37.504Z,8.65
2017-12-05T03:12:03.757Z,7.70
2017-12-05T03:14:30.389Z,7.30
2017-12-05T03:16:56.984Z,7.82
2017-12-05T03:19:23.218Z,7.30
2017-12-05T03:21:49.482Z,7.07
2017-12-05T03:24:16.048Z,7.25
2017-12-05T03:26:42.297Z,7.93
2017-12-05T03:29:08.544Z,7.65
2017-12-05T03:31:34.793Z,7.72
2017-12-05T03:34:01.051Z,9.05
2017-12-05T03:36:27.280Z,8.75
2017-12-05T03:38:53.497Z,12.30
2017-12-05T03:41:20.088Z,10.10
2017-12-05T03:43:46.358Z,9.50
2017-12-05T03:46:12.948Z,9.55
2017-12-05T03:48:39.175Z,8.90
2017-12-05T03:51:05.409Z,8.27
2017-12-05T03:53:31.618Z,8.05
2017-12-05T03:55:57.809Z,7.18
2017-12-05T03:58:23.995Z,9.52
2017-12-05T04:00:50.223Z,8.95
2017-12-05T04:03:16.469Z,8.35
2017-12-05T04:05:42.709Z,7.18
2017-12-05T04:08:09.316Z,8.40
2017-12-05T04:10:35.541Z,8.48
2017-12-05T04:13:01.745Z,7.78
2017-12-05T04:15:27.948Z,9.30
2017-12-05T04:17:54.173Z,9.60
2017-12-05T04:20:20.407Z,8.85
2017-12-05T04:22:46.625Z,10.05
2017-12-05T04:25:12.835Z,9.88
2017-12-05T04:27:39.022Z,9.63
2017-12-05T04:30:05.228Z,9.60
2017-12-05T04:32:31.478Z,9.70
2017-12-05T04:34:57.721Z,10.48
2017-12-05T04:37:23.966Z,9.10
2017-12-05T04:39:50.201Z,9.45
2017-12-05T04:42:16.466Z,13.38
2017-12-05T04:44:42.699Z,15.20
2017-12-05T04:47:08.944Z,12.27
2017-12-05T04:49:35.216Z,13.45
2017-12-05T04:52:01.471Z,11.43
2017-12-05T04:54:27.745Z,12.80
2017-12-05T04:56:53.995Z,11.40
2017-12-05T04:59:20.262Z,12.13
2017-12-05T05:01:46.823Z,11.70
2017-12-05T05:04:13.077Z,11.30
2017-12-05T05:06:39.337Z,11.20
2017-12-05T05:09:05.999Z,13.55
2017-12-05T05:11:32.602Z,17.60
2017-12-05T05:13:59.220Z,14.60
2017-12-05T05:16:25.477Z,13.05
2017-12-05T05:18:52.088Z,10.50
2017-12-05T05:21:18.319Z,10.55
2017-12-05T05:23:44.620Z,9.43
2017-12-05T05:26:10.857Z,9.55
2017-12-05T05:28:37.113Z,10.15
2017-12-05T05:31:03.331Z,10.80
2017-12-05T05:33:29.567Z,9.25
2017-12-05T05:35:55.855Z,11.27
2017-12-05T05:38:22.077Z,10.27
2017-12-05T05:40:48.375Z,11.10
2017-12-05T05:43:15.048Z,11.63
2017-12-05T05:45:41.309Z,9.40
2017-12-05T05:48:07.555Z,10.50
2017-12-05T05:50:33.760Z,10.52
2017-12-05T05:52:59.955Z,10.35
2017-12-05T05:55:26.201Z,13.20
2017-12-05T05:57:52.427Z,12.45
2017-12-05T06:00:18.643Z,11.00
2017-12-05T06:02:44.866Z,10.10
2017-12-05T06:05:11.079Z,10.77
2017-12-05T06:07:37.285Z,11.57
2017-12-05T06:10:03.861Z,12.35
2017-12-05T06:12:30.103Z,10.70
2017-12-05T06:14:56.319Z,10.90
2017-12-05T06:17:22.503Z,13.82
2017-12-05T06:19:48.753Z,11.25
2017-12-05T06:22:14.993Z,13.05
2017-12-05T06:24:41.215Z,12.45
2017-12-05T06:27:07.410Z,15.35
2017-12-05T06:29:34.060Z,16.65
2017-12-05T06:32:00.644Z,16.73
2017-12-05T06:34:26.884Z,17.30
2017-12-05T06:36:53.074Z,16.35
2017-12-05T06:39:19.271Z,13.27
2017-12-05T06:41:45.906Z,14.68
2017-12-05T06:44:12.500Z,13.82
2017-12-05T06:46:38.732Z,16.17
2017-12-05T06:49:04.952Z,18.00
2017-12-05T06:51:31.177Z,19.52
2017-12-05T06:53:57.408Z,17.35
2017-12-05T06:56:23.635Z,15.85
2017-12-05T06:58:49.888Z,14.30
2017-12-05T07:01:16.140Z,13.73
2017-12-05T07:03:42.410Z,13.88
2017-12-05T07:06:08.663Z,12.82
2017-12-05T07:08:34.913Z,14.82
2017-12-05T07:11:01.172Z,15.15
2017-12-05T07:13:27.413Z,14.52
2017-12-05T07:15:53.681Z,13.50
2017-12-05T07:18:19.937Z,13.75
2017-12-05T07:20:46.548Z,14.95
2017-12-05T07:23:12.777Z,14.30
2017-12-05T07:25:39.033Z,16.00
2017-12-05T07:28:05.670Z,15.00
2017-12-05T07:30:32.304Z,15.70
2017-12-05T07:32:58.948Z,15.23
2017-12-05T07:35:25.607Z,15.60
2017-12-05T07:37:52.757Z,16.42
2017-12-05T07:40:19.013Z,15.20
2017-12-05T07:42:45.275Z,16.00
2017-12-05T07:45:11.539Z,14.32
2017-12-05T07:47:37.785Z,15.75
2017-12-05T07:50:04.081Z,16.20
2017-12-05T07:52:30.299Z,21.15
2017-12-05T07:54:56.536Z,24.80
2017-12-05T07:57:23.207Z,24.52
2017-12-05T07:59:49.473Z,25.83
2017-12-05T08:02:15.753Z,25.23
2017-12-05T08:04:41.997Z,27.50
2017-12-05T08:07:08.275Z,23.77
2017-12-05T08:09:35.520Z,19.37
2017-12-05T08:12:02.253Z,18.80
2017-12-05T08:14:28.515Z,17.92
2017-12-05T08:16:55.206Z,19.20
2017-12-05T08:19:21.457Z,17.70
2017-12-05T08:21:47.727Z,19.15
2017-12-05T08:24:13.994Z,16.52
2017-12-05T08:26:40.220Z,21.45
2017-12-05T08:29:06.493Z,23.20
2017-12-05T08:31:33.142Z,28.55
2017-12-05T08:33:59.769Z,24.50
2017-12-05T08:36:26.429Z,21.48
2017-12-05T08:38:52.681Z,18.10
2017-12-05T08:41:18.942Z,17.15
2017-12-05T08:43:45.191Z,20.77
2017-12-05T08:46:11.837Z,19.50
2017-12-05T08:48:38.129Z,18.83
2017-12-05T08:51:04.397Z,16.17
2017-12-05T08:53:30.671Z,19.20
2017-12-05T08:55:56.981Z,17.35
2017-12-05T08:58:23.228Z,17.05
2017-12-05T09:00:49.515Z,18.08
2017-12-05T09:03:15.769Z,17.92
2017-12-05T09:05:42.030Z,17.87
2017-12-05T09:08:08.259Z,16.70
2017-12-05T09:10:34.530Z,16.25
2017-12-05T09:13:00.774Z,22.25
2017-12-05T09:15:26.998Z,24.15
2017-12-05T09:17:53.324Z,20.10
2017-12-05T09:20:19.595Z,22.35
2017-12-05T09:22:45.902Z,22.05
2017-12-05T09:25:12.158Z,23.90
2017-12-05T09:27:38.405Z,21.50
2017-12-05T09:30:04.639Z,18.20
2017-12-05T09:32:31.279Z,19.17
2017-12-05T09:34:57.888Z,18.98
2017-12-05T09:37:24.143Z,15.35
2017-12-05T09:39:50.779Z,17.75
2017-12-05T09:42:17.379Z,17.90
2017-12-05T09:44:43.639Z,15.48
2017-12-05T09:47:10.264Z,17.42
2017-12-05T09:49:36.525Z,19.52
2017-12-05T09:52:03.154Z,17.00
2017-12-05T09:54:29.853Z,18.02
2017-12-05T09:56:56.113Z,17.62
2017-12-05T09:59:22.706Z,16.77
2017-12-05T10:01:48.977Z,14.23
2017-12-05T10:04:15.220Z,13.27
2017-12-05T10:06:41.674Z,12.90
2017-12-05T10:09:07.892Z,13.62
2017-12-05T10:11:34.130Z,14.52
2017-12-05T10:14:00.387Z,13.10
2017-12-05T10:16:26.725Z,13.68
2017-12-05T10:18:52.967Z,14.27
2017-12-05T10:21:19.285Z,13.10
2017-12-05T10:23:45.533Z,15.10
2017-12-05T10:26:16.132Z,13.73
2017-12-05T10:28:47.710Z,13.80
2017-12-05T10:31:13.951Z,14.00
2017-12-05T10:33:40.206Z,13.10
2017-12-05T10:36:06.444Z,13.48
2017-12-05T10:38:32.708Z,16.23
2017-12-05T10:40:58.962Z,14.70
2017-12-05T10:43:25.206Z,14.73
2017-12-05T10:45:52.537Z,14.23
2017-12-05T10:48:18.781Z,13.98
2017-12-05T10:50:45.029Z,14.77
2017-12-05T10:53:11.306Z,15.00
2017-12-05T10:55:37.564Z,15.00
2017-12-05T10:58:04.207Z,15.02
2017-12-05T11:00:31.573Z,14.00
2017-12-05T11:02:58.169Z,12.25
2017-12-05T11:05:24.429Z,13.10
2017-12-05T11:07:51.675Z,13.30
2017-12-05T11:10:17.957Z,12.68
2017-12-05T11:12:44.208Z,11.80
2017-12-05T11:15:10.501Z,11.23
2017-12-05T11:17:36.839Z,13.00
2017-12-05T11:20:03.164Z,10.70
2017-12-05T11:22:29.436Z,10.20
2017-12-05T11:24:55.644Z,11.80
2017-12-05T11:27:21.946Z,10.48
2017-12-05T11:29:48.174Z,12.25
2017-12-05T11:32:14.433Z,11.60
2017-12-05T11:34:40.689Z,11.63
2017-12-05T11:37:06.976Z,11.10
2017-12-05T11:39:33.243Z,11.65
2017-12-05T11:41:59.537Z,11.70
2017-12-05T11:44:25.806Z,11.07
2017-12-05T11:46:52.083Z,10.65
2017-12-05T11:49:18.330Z,11.07
2017-12-05T11:51:44.603Z,10.27
2017-12-05T11:54:10.857Z,11.00
2017-12-05T11:56:37.098Z,10.75
2017-12-05T11:59:03.377Z,10.40
2017-12-05T12:01:30.011Z,11.52
2017-12-05T12:03:56.240Z,10.18
2017-12-05T12:06:22.569Z,10.13
2017-12-05T12:08:48.808Z,10.73
2017-12-05T12:11:15.024Z,11.05
2017-12-05T12:13:41.302Z,9.73
2017-12-05T12:16:07.503Z,11.35
2017-12-05T12:18:34.872Z,10.52
2017-12-05T12:21:01.304Z,11.60
2017-12-05T12:23:28.250Z,10.10
2017-12-05T12:25:54.480Z,10.20
2017-12-05T12:28:20.690Z,11.20
2017-12-05T12:30:47.602Z,11.07
2017-12-05T12:33:14.426Z,9.32
2017-12-05T12:35:40.639Z,10.50
2017-12-05T12:38:06.864Z,10.65
2017-12-05T12:40:33.136Z,9.45
2017-12-05T12:42:59.397Z,9.13
2017-12-05T12:45:26.662Z,10.38
2017-12-05T12:47:53.435Z,8.80
2017-12-05T12:50:19.659Z,9.35
2017-12-05T12:52:45.917Z,10.27
2017-12-05T12:55:12.166Z,9.35
2017-12-05T12:57:38.744Z,9.68
2017-12-05T13:00:04.995Z,9.20
2017-12-05T13:02:31.191Z,7.90
2017-12-05T13:04:57.406Z,8.43
2017-12-05T13:07:23.668Z,8.13
2017-12-05T13:09:49.983Z,9.68
2017-12-05T13:12:16.144Z,9.45
2017-12-05T13:14:42.344Z,9.38
2017-12-05T13:17:08.578Z,8.88
2017-12-05T13:19:34.788Z,10.50
2017-12-05T13:22:01.015Z,11.90
2017-12-05T13:24:28.040Z,10.43
2017-12-05T13:26:54.261Z,10.27
2017-12-05T13:29:20.867Z,10.75
2017-12-05T13:31:47.101Z,11.07
2017-12-05T13:34:13.382Z,12.10
2017-12-05T13:36:39.588Z,11.48
2017-12-05T13:39:05.819Z,9.68
2017-12-05T13:41:32.517Z,10.50
2017-12-05T13:43:58.787Z,10.73
2017-12-05T13:46:25.027Z,10.88
2017-12-05T13:48:51.323Z,10.50
2017-12-05T13:51:17.547Z,9.63
2017-12-05T13:53:43.772Z,10.25
2017-12-05T13:56:10.014Z,9.60
2017-12-05T13:58:36.268Z,10.18
2017-12-05T14:01:02.505Z,10.50
2017-12-05T14:03:28.781Z,9.27
2017-12-05T14:05:57.140Z,11.40
2017-12-05T14:08:24.346Z,14.18
2017-12-05T14:10:50.619Z,11.73
2017-12-05T14:13:16.854Z,11.77
2017-12-05T14:15:43.145Z,9.50
2017-12-05T14:18:09.388Z,10.05
2017-12-05T14:20:35.657Z,9.43
2017-12-05T14:23:02.131Z,10.05
2017-12-05T14:25:28.384Z,9.45
2017-12-05T14:27:54.666Z,8.85
2017-12-05T14:30:21.311Z,9.75
2017-12-05T14:32:47.541Z,9.40
2017-12-05T14:35:14.026Z,7.75
2017-12-05T14:37:40.290Z,8.73
2017-12-05T14:40:07.655Z,9.02
2017-12-05T14:42:34.347Z,10.50
2017-12-05T14:45:00.807Z,9.50
2017-12-05T14:47:27.433Z,9.82
2017-12-05T14:49:53.720Z,9.90
2017-12-05T14:52:19.973Z,9.73
2017-12-05T14:54:46.201Z,9.88
2017-12-05T14:57:12.450Z,8.27
2017-12-05T14:59:38.683Z,7.90
2017-12-05T15:02:04.917Z,10.45
2017-12-05T15:04:31.200Z,9.10
2017-12-05T15:06:58.387Z,9.13
2017-12-05T15:09:24.628Z,12.55
2017-12-05T15:11:51.883Z,10.52
2017-12-05T15:14:18.153Z,10.95
2017-12-05T15:16:44.393Z,11.77
2017-12-05T15:19:10.637Z,11.48
2017-12-05T15:21:36.906Z,11.35
2017-12-05T15:24:04.073Z,11.70
2017-12-05T15:26:30.330Z,12.07
2017-12-05T15:28:56.598Z,9.95
2017-12-05T15:31:23.251Z,11.15
2017-12-05T15:33:49.891Z,10.95
2017-12-05T15:36:16.536Z,14.07
2017-12-05T15:38:42.782Z,12.55
2017-12-05T15:41:09.027Z,13.90
2017-12-05T15:43:35.308Z,13.20
2017-12-05T15:46:01.558Z,11.25
2017-12-05T15:48:27.845Z,11.90
2017-12-05T15:50:54.071Z,11.20
2017-12-05T15:53:20.375Z,10.88
2017-12-05T15:55:46.599Z,10.75
2017-12-05T15:58:12.836Z,11.15
2017-12-05T16:00:39.095Z,11.60
2017-12-05T16:03:05.376Z,12.13
2017-12-05T16:05:31.695Z,11.10
2017-12-05T16:07:57.963Z,11.18
2017-12-05T16:10:24.224Z,10.23
2017-12-05T16:12:50.856Z,14.23
2017-12-05T16:15:17.133Z,12.68
2017-12-05T16:17:43.394Z,13.25
2017-12-05T16:20:10.654Z,12.95
2017-12-05T16:22:37.559Z,11.52
2017-12-05T16:25:03.797Z,10.48
2017-12-05T16:27:30.071Z,11.25
2017-12-05T16:29:56.722Z,11.82
2017-12-05T16:32:22.995Z,11.60
2017-12-05T16:34:49.234Z,12.25
2017-12-05T16:37:15.543Z,12.88
2017-12-05T16:39:41.839Z,11.57
2017-12-05T16:42:08.097Z,11.50
2017-12-05T16:44:34.417Z,11.12
2017-12-05T16:47:00.664Z,12.98
2017-12-05T16:49:26.984Z,13.20
2017-12-05T16:51:53.307Z,13.85
2017-12-05T16:54:19.585Z,13.70
2017-12-05T16:56:45.846Z,13.05
2017-12-05T16:59:12.073Z,12.80
2017-12-05T17:01:38.359Z,13.45
2017-12-05T17:04:05.522Z,15.50
2017-12-05T17:06:31.814Z,12.18
2017-12-05T17:08:58.117Z,10.85
2017-12-05T17:11:24.360Z,11.77
2017-12-05T17:13:50.687Z,12.82
2017-12-05T17:16:16.936Z,11.12
2017-12-05T17:18:43.278Z,11.90
2017-12-05T17:21:09.998Z,11.95
2017-12-05T17:23:36.330Z,12.60
2017-12-05T17:26:02.637Z,13.38
2017-12-05T17:28:28.881Z,13.62
2017-12-05T17:30:55.230Z,13.38
2017-12-05T17:33:21.505Z,17.02
2017-12-05T17:35:47.771Z,14.32
2017-12-05T17:38:14.044Z,12.10
2017-12-05T17:40:40.320Z,13.38
2017-12-05T17:43:06.581Z,9.60
2017-12-05T17:45:32.889Z,6.57
2017-12-05T17:47:59.182Z,8.90
2017-12-05T17:50:25.788Z,7.18
2017-12-05T17:52:52.083Z,8.77
2017-12-05T17:55:18.317Z,8.38
2017-12-05T17:57:44.608Z,7.62
2017-12-05T18:00:11.292Z,6.65
2017-12-05T18:02:37.549Z,6.47
2017-12-05T18:05:04.770Z,7.22
2017-12-05T18:07:31.036Z,6.62
2017-12-05T18:09:57.681Z,7.65
2017-12-05T18:12:24.344Z,7.12
2017-12-05T18:14:50.648Z,7.90
2017-12-05T18:17:16.971Z,7.82
2017-12-05T18:19:43.662Z,8.00
2017-12-05T18:22:09.997Z,8.10
2017-12-05T18:24:36.279Z,6.97
2017-12-05T18:27:02.985Z,7.78
2017-12-05T18:29:29.350Z,9.48
2017-12-05T18:31:56.028Z,9.98
2017-12-05T18:34:22.366Z,10.10
2017-12-05T18:36:48.646Z,11.07
2017-12-05T18:39:15.465Z,12.88
2017-12-05T18:41:41.766Z,12.88
2017-12-05T18:44:08.097Z,12.90
2017-12-05T18:46:34.466Z,12.73
2017-12-05T18:49:00.740Z,13.25
2017-12-05T18:51:28.493Z,15.00
2017-12-05T18:53:54.812Z,13.70
2017-12-05T18:56:21.064Z,13.95
2017-12-05T18:58:47.404Z,14.15
2017-12-05T19:01:14.248Z,13.73
2017-12-05T19:03:40.591Z,12.52
2017-12-05T19:06:07.012Z,11.60
2017-12-05T19:08:33.388Z,11.43
2017-12-05T19:10:59.720Z,13.07
2017-12-05T19:13:26.649Z,12.98
2017-12-05T19:15:53.034Z,13.80
2017-12-05T19:18:19.324Z,12.13
2017-12-05T19:20:45.716Z,11.23
2017-12-05T19:23:12.050Z,11.18
2017-12-05T19:25:38.399Z,12.15
2017-12-05T19:28:04.997Z,11.48
2017-12-05T19:30:31.343Z,11.30
2017-12-05T19:32:57.704Z,11.27
2017-12-05T19:35:24.049Z,10.70
2017-12-05T19:37:50.806Z,10.98
2017-12-05T19:40:18.736Z,11.20
2017-12-05T19:42:45.112Z,12.27
2017-12-05T19:45:11.417Z,10.57
2017-12-05T19:47:37.715Z,11.85
2017-12-05T19:50:04.090Z,11.45
2017-12-05T19:52:30.749Z,11.70
2017-12-05T19:54:57.067Z,9.48
2017-12-05T19:57:23.439Z,10.95
2017-12-05T19:59:49.753Z,11.00
2017-12-05T20:02:16.028Z,10.00
2017-12-05T20:04:42.482Z,10.30
2017-12-05T20:07:09.217Z,12.18
2017-12-05T20:09:35.564Z,11.50
2017-12-05T20:12:01.966Z,12.40
2017-12-05T20:14:28.759Z,10.75
2017-12-05T20:16:55.145Z,12.07
2017-12-05T20:19:22.454Z,10.45
2017-12-05T20:21:48.928Z,11.63
2017-12-05T20:24:15.269Z,10.85
2017-12-05T20:26:41.692Z,9.90
2017-12-05T20:29:08.343Z,9.25
2017-12-05T20:31:35.041Z,9.65
2017-12-05T20:34:01.415Z,9.35
2017-12-05T20:36:27.770Z,10.10
2017-12-05T20:38:54.140Z,9.88
2017-12-05T20:41:20.538Z,9.50
2017-12-05T20:43:46.899Z,11.32
2017-12-05T20:46:13.328Z,9.40
2017-12-05T20:48:40.494Z,9.88
2017-12-05T20:51:07.493Z,10.40
2017-12-05T20:53:33.780Z,9.68
2017-12-05T20:56:00.074Z,9.32
2017-12-05T20:58:26.425Z,9.60
2017-12-05T21:00:52.722Z,11.25
2017-12-05T21:03:19.123Z,10.25
2017-12-05T21:05:45.873Z,10.30
2017-12-05T21:08:12.199Z,10.52
2017-12-05T21:10:38.466Z,10.82
2017-12-05T21:13:04.765Z,11.77
2017-12-05T21:15:31.087Z,10.27
2017-12-05T21:17:58.484Z,10.35
2017-12-05T21:20:25.726Z,11.10
2017-12-05T21:22:52.084Z,10.82
2017-12-05T21:25:18.362Z,12.35
2017-12-05T21:27:44.605Z,11.48
2017-12-05T21:30:10.927Z,11.95
2017-12-05T21:32:37.223Z,11.05
2017-12-05T21:35:03.836Z,10.35
2017-12-05T21:37:30.799Z,10.65
2017-12-05T21:39:57.086Z,13.75
2017-12-05T21:42:23.350Z,12.05
2017-12-05T21:44:49.583Z,13.30
2017-12-05T21:47:15.846Z,12.50
2017-12-05T21:49:42.073Z,12.93
2017-12-05T21:52:08.337Z,11.98
2017-12-05T21:54:34.668Z,11.32
2017-12-05T21:57:01.975Z,13.82
2017-12-05T21:59:28.236Z,13.85
2017-12-05T22:01:54.526Z,13.90
2017-12-05T22:04:21.114Z,15.15
2017-12-05T22:06:47.392Z,14.93
2017-12-05T22:09:13.974Z,16.48
2017-12-05T22:11:40.217Z,14.60
2017-12-05T22:14:06.480Z,13.75
2017-12-05T22:16:33.108Z,15.57
2017-12-05T22:18:59.622Z,14.90
2017-12-05T22:21:25.895Z,15.52
2017-12-05T22:23:52.518Z,16.58
2017-12-05T22:26:18.774Z,16.25
2017-12-05T22:28:45.055Z,14.20
2017-12-05T22:31:11.303Z,16.08
2017-12-05T22:33:37.897Z,16.33
2017-12-05T22:36:04.126Z,17.42
2017-12-05T22:38:30.395Z,15.52
2017-12-05T22:40:56.981Z,16.70
2017-12-05T22:43:23.219Z,21.00
2017-12-05T22:45:49.459Z,19.75
2017-12-05T22:48:15.791Z,18.15
2017-12-05T22:50:42.053Z,18.85
2017-12-05T22:53:08.679Z,17.10
2017-12-05T22:55:34.877Z,18.65
2017-12-05T22:58:01.113Z,16.83
2017-12-05T23:00:28.257Z,15.85
2017-12-05T23:02:54.476Z,17.48
2017-12-05T23:05:21.398Z,16.40
2017-12-05T23:07:47.603Z,16.92
2017-12-05T23:10:15.075Z,19.60
2017-12-05T23:12:42.188Z,19.17
2017-12-05T23:15:08.444Z,19.40
2017-12-05T23:17:34.648Z,23.20
2017-12-05T23:20:00.892Z,22.23
2017-12-05T23:22:27.114Z,22.40
2017-12-05T23:24:53.596Z,25.48
2017-12-05T23:27:19.817Z,24.70
2017-12-05T23:29:47.344Z,26.10
2017-12-05T23:32:13.937Z,24.12
2017-12-05T23:34:40.169Z,25.27
2017-12-05T23:37:06.362Z,24.50
2017-12-05T23:39:32.577Z,20.12
2017-12-05T23:41:58.789Z,17.65
2017-12-05T23:44:24.994Z,18.30
2017-12-05T23:46:52.142Z,16.33
2017-12-05T23:49:18.376Z,16.27
2017-12-05T23:51:44.969Z,16.50
2017-12-05T23:54:11.293Z,15.75
2017-12-05T23:56:37.527Z,15.98
2017-12-05T23:59:03.763Z,14.63
